首页
METAR-TAF:

METAR-TAF

机场 :

Tyndall Air Force Base

Panama City, 佛罗里达州, 美国

纬度: 30-04N, 经度: 085-35W, 海拔: 5米

当前天气观测

该预报发布于57分钟前的19:56 UTC
风速11节,风向东转东南
温度 18°C
湿度 68%
气压 1017 hPa
能見度: 16.1公里
少量云层高于19000英尺

METAR: KPAM 131956Z AUTO 12011KT 10SM FEW190 18/12 A3003 RMK AO2 SLP172 T01840119 $

时间: 14:53 (20:53 UTC)

预报

该预报发布于1小时和53分钟前的19:00 UTC
预报有效从13日的 19点(UTC)到 15日的 01点(UTC)
风速12节,风向东转东南,有时为18节阵风
能见度10公里或以上
散云层高于2000英尺
多云层高于4000英尺
多云层高于10000英尺
成为
从 14日的 02点(UTC)到 14日的 03点(UTC)
风速15节,风向南转南东,有时为25节阵风
能見度: 8000
散云层高于1000英尺
多云层高于2500英尺
阴天层高于3000英尺
小阵雨
短暂存在
从 14日的 06点(UTC)到 14日的 12点(UTC)
风速35节,风向南转南东,有时为45节阵风
能見度: 4800
多云层高于500英尺
阴天层高于1000英尺, 积雨云.
雷暴, 小雨
成为
从 14日的 15点(UTC)到 14日的 16点(UTC)
风速10节,风向,有时为15节阵风
能见度10公里或以上
多云层高于500英尺
多云层高于1000英尺
成为
从 14日的 20点(UTC)到 14日的 21点(UTC)
风速12节,风向南转西南
能见度10公里或以上
散云层高于2000英尺
多云层高于4000英尺

TAF: KPAM 131900Z 1319/1501 12012G18KT 9999 SCT020 BKN040 BKN100 QNH3004INS BECMG 1402/1403 15015G25KT 8000 -SHRA SCT010 BKN025 OVC030 QNH3000INS TEMPO 1406/1412 15035G45KT 4800 -TSRA BKN005 OVC010CB BECMG 1415/1416 18010G15KT 9999 NSW BKN005 BKN010 QNH2994INS BECMG 1420/1421 21012KT 9999 SCT020 BKN040 QNH2988INS TX18/1320Z TN14/1414Z

超过4000个机场的气象观测和天气预报(METAR&TAF报告)。

可查询的气象台以黄色和红色小点在地图上表示。

将鼠标移到小点上方,可查看气象台名称。

然后点击查看天气观测和预报。

如需切换地图:点击带黑十字的绿色按钮放大地图;点击带横线的绿色按钮缩小地图;或者点击绿色箭头查看邻近地区的地图。


METAR-TAF: